sensor_id;sensor_type;location;lat;lon;timestamp;P1;durP1;ratioP1;P2;durP2;ratioP2
60430;SDS011;46285;45.122;20.726;2024-01-06T00:06:39;9.07;;;5.10;;
60430;SDS011;46285;45.122;20.726;2024-01-06T00:16:42;11.45;;;5.20;;
60430;SDS011;46285;45.122;20.726;2024-01-06T00:26:44;13.50;;;6.18;;
60430;SDS011;46285;45.122;20.726;2024-01-06T00:36:46;15.10;;;5.22;;
60430;SDS011;46285;45.122;20.726;2024-01-06T00:46:48;9.57;;;4.53;;
60430;SDS011;46285;45.122;20.726;2024-01-06T00:56:50;10.35;;;3.72;;
60430;SDS011;46285;45.122;20.726;2024-01-06T01:06:52;13.82;;;5.13;;
60430;SDS011;46285;45.122;20.726;2024-01-06T01:16:54;11.75;;;5.70;;
60430;SDS011;46285;45.122;20.726;2024-01-06T01:26:56;8.35;;;4.03;;
60430;SDS011;46285;45.122;20.726;2024-01-06T01:36:59;9.40;;;4.47;;
60430;SDS011;46285;45.122;20.726;2024-01-06T01:47:00;8.73;;;3.90;;
60430;SDS011;46285;45.122;20.726;2024-01-06T01:57:03;10.52;;;3.92;;
60430;SDS011;46285;45.122;20.726;2024-01-06T02:07:05;13.00;;;4.55;;
60430;SDS011;46285;45.122;20.726;2024-01-06T02:17:07;19.08;;;5.75;;
60430;SDS011;46285;45.122;20.726;2024-01-06T02:27:09;8.40;;;3.67;;
60430;SDS011;46285;45.122;20.726;2024-01-06T02:37:11;11.30;;;3.83;;
60430;SDS011;46285;45.122;20.726;2024-01-06T02:47:13;10.98;;;3.97;;
60430;SDS011;46285;45.122;20.726;2024-01-06T02:57:15;10.85;;;3.70;;
60430;SDS011;46285;45.122;20.726;2024-01-06T03:07:17;10.65;;;4.68;;
60430;SDS011;46285;45.122;20.726;2024-01-06T03:17:19;10.23;;;3.30;;
60430;SDS011;46285;45.122;20.726;2024-01-06T03:27:21;9.60;;;3.60;;
60430;SDS011;46285;45.122;20.726;2024-01-06T03:37:23;7.57;;;3.00;;
60430;SDS011;46285;45.122;20.726;2024-01-06T03:47:25;7.85;;;2.83;;
60430;SDS011;46285;45.122;20.726;2024-01-06T03:57:27;9.27;;;3.22;;
60430;SDS011;46285;45.122;20.726;2024-01-06T04:07:29;12.10;;;2.70;;
60430;SDS011;46285;45.122;20.726;2024-01-06T04:17:31;7.95;;;2.78;;
60430;SDS011;46285;45.122;20.726;2024-01-06T04:27:32;7.40;;;2.88;;
60430;SDS011;46285;45.122;20.726;2024-01-06T04:37:35;8.88;;;3.13;;
60430;SDS011;46285;45.122;20.726;2024-01-06T04:47:37;7.63;;;3.15;;
60430;SDS011;46285;45.122;20.726;2024-01-06T04:57:39;12.15;;;3.63;;
60430;SDS011;46285;45.122;20.726;2024-01-06T05:07:41;9.55;;;4.18;;
60430;SDS011;46285;45.122;20.726;2024-01-06T05:17:43;8.77;;;3.42;;
60430;SDS011;46285;45.122;20.726;2024-01-06T05:27:45;9.02;;;3.38;;
60430;SDS011;46285;45.122;20.726;2024-01-06T05:37:47;8.73;;;3.80;;
60430;SDS011;46285;45.122;20.726;2024-01-06T05:47:49;11.82;;;3.35;;
60430;SDS011;46285;45.122;20.726;2024-01-06T05:57:51;8.48;;;2.80;;
60430;SDS011;46285;45.122;20.726;2024-01-06T06:07:53;8.93;;;3.92;;
60430;SDS011;46285;45.122;20.726;2024-01-06T06:17:55;9.43;;;3.60;;
60430;SDS011;46285;45.122;20.726;2024-01-06T06:28:00;7.75;;;3.60;;
60430;SDS011;46285;45.122;20.726;2024-01-06T06:38:02;10.40;;;4.47;;
60430;SDS011;46285;45.122;20.726;2024-01-06T06:48:04;11.82;;;5.53;;
60430;SDS011;46285;45.122;20.726;2024-01-06T06:58:07;16.02;;;6.40;;
60430;SDS011;46285;45.122;20.726;2024-01-06T07:08:09;12.18;;;6.32;;
60430;SDS011;46285;45.122;20.726;2024-01-06T07:18:11;17.55;;;8.23;;
60430;SDS011;46285;45.122;20.726;2024-01-06T07:28:13;18.33;;;9.70;;
60430;SDS011;46285;45.122;20.726;2024-01-06T07:38:15;18.70;;;11.13;;
60430;SDS011;46285;45.122;20.726;2024-01-06T07:48:17;15.00;;;8.57;;
60430;SDS011;46285;45.122;20.726;2024-01-06T07:58:19;10.68;;;4.95;;
60430;SDS011;46285;45.122;20.726;2024-01-06T08:08:22;14.40;;;7.72;;
60430;SDS011;46285;45.122;20.726;2024-01-06T08:18:24;22.88;;;11.23;;
60430;SDS011;46285;45.122;20.726;2024-01-06T08:28:26;15.10;;;7.72;;
60430;SDS011;46285;45.122;20.726;2024-01-06T08:38:28;18.55;;;8.27;;
60430;SDS011;46285;45.122;20.726;2024-01-06T08:48:30;13.63;;;8.07;;
60430;SDS011;46285;45.122;20.726;2024-01-06T08:58:32;16.05;;;7.40;;
60430;SDS011;46285;45.122;20.726;2024-01-06T09:08:34;12.65;;;6.60;;
60430;SDS011;46285;45.122;20.726;2024-01-06T09:18:36;11.70;;;5.72;;
60430;SDS011;46285;45.122;20.726;2024-01-06T09:28:38;24.33;;;11.35;;
60430;SDS011;46285;45.122;20.726;2024-01-06T09:38:40;13.07;;;6.03;;
60430;SDS011;46285;45.122;20.726;2024-01-06T09:48:42;16.23;;;7.43;;
60430;SDS011;46285;45.122;20.726;2024-01-06T09:58:44;13.35;;;6.22;;
60430;SDS011;46285;45.122;20.726;2024-01-06T10:08:50;13.02;;;5.97;;
60430;SDS011;46285;45.122;20.726;2024-01-06T10:18:53;17.63;;;9.68;;
60430;SDS011;46285;45.122;20.726;2024-01-06T10:28:56;17.25;;;7.28;;
60430;SDS011;46285;45.122;20.726;2024-01-06T10:38:58;10.77;;;5.63;;
60430;SDS011;46285;45.122;20.726;2024-01-06T10:49:00;15.57;;;8.18;;
60430;SDS011;46285;45.122;20.726;2024-01-06T10:59:04;21.80;;;11.15;;
60430;SDS011;46285;45.122;20.726;2024-01-06T11:09:19;29.70;;;16.10;;
60430;SDS011;46285;45.122;20.726;2024-01-06T11:29:38;29.65;;;12.35;;
60430;SDS011;46285;45.122;20.726;2024-01-06T11:39:44;21.85;;;11.00;;
60430;SDS011;46285;45.122;20.726;2024-01-06T11:49:46;20.33;;;11.35;;
60430;SDS011;46285;45.122;20.726;2024-01-06T11:59:50;19.27;;;9.52;;
60430;SDS011;46285;45.122;20.726;2024-01-06T12:10:00;17.02;;;8.13;;
60430;SDS011;46285;45.122;20.726;2024-01-06T12:20:07;17.20;;;9.40;;
60430;SDS011;46285;45.122;20.726;2024-01-06T12:30:16;22.20;;;11.50;;
60430;SDS011;46285;45.122;20.726;2024-01-06T12:40:19;19.48;;;10.43;;
60430;SDS011;46285;45.122;20.726;2024-01-06T12:50:22;15.00;;;7.68;;
60430;SDS011;46285;45.122;20.726;2024-01-06T13:00:24;15.85;;;7.10;;
60430;SDS011;46285;45.122;20.726;2024-01-06T13:10:26;14.63;;;8.43;;
60430;SDS011;46285;45.122;20.726;2024-01-06T13:20:28;17.15;;;8.32;;
60430;SDS011;46285;45.122;20.726;2024-01-06T13:30:30;18.67;;;8.90;;
60430;SDS011;46285;45.122;20.726;2024-01-06T13:40:34;16.63;;;9.00;;
60430;SDS011;46285;45.122;20.726;2024-01-06T13:50:36;27.35;;;13.05;;
60430;SDS011;46285;45.122;20.726;2024-01-06T14:00:38;27.38;;;11.82;;
60430;SDS011;46285;45.122;20.726;2024-01-06T14:10:40;32.65;;;16.23;;
60430;SDS011;46285;45.122;20.726;2024-01-06T14:20:42;37.63;;;19.02;;
60430;SDS011;46285;45.122;20.726;2024-01-06T14:30:44;30.88;;;18.40;;
60430;SDS011;46285;45.122;20.726;2024-01-06T14:40:46;26.50;;;11.85;;
60430;SDS011;46285;45.122;20.726;2024-01-06T14:50:48;31.88;;;15.55;;
60430;SDS011;46285;45.122;20.726;2024-01-06T15:00:51;28.45;;;15.75;;
60430;SDS011;46285;45.122;20.726;2024-01-06T15:10:55;43.95;;;22.75;;
60430;SDS011;46285;45.122;20.726;2024-01-06T15:20:57;40.47;;;25.08;;
60430;SDS011;46285;45.122;20.726;2024-01-06T15:30:59;26.98;;;19.73;;
60430;SDS011;46285;45.122;20.726;2024-01-06T15:41:01;27.10;;;16.85;;
60430;SDS011;46285;45.122;20.726;2024-01-06T15:51:05;23.52;;;14.15;;
60430;SDS011;46285;45.122;20.726;2024-01-06T16:01:08;21.80;;;12.88;;
60430;SDS011;46285;45.122;20.726;2024-01-06T16:11:10;43.72;;;25.38;;
60430;SDS011;46285;45.122;20.726;2024-01-06T16:21:20;32.83;;;20.15;;
60430;SDS011;46285;45.122;20.726;2024-01-06T16:31:22;41.50;;;22.05;;
60430;SDS011;46285;45.122;20.726;2024-01-06T16:41:24;41.95;;;23.35;;
60430;SDS011;46285;45.122;20.726;2024-01-06T16:51:27;26.23;;;14.50;;
60430;SDS011;46285;45.122;20.726;2024-01-06T17:01:29;36.15;;;17.20;;
60430;SDS011;46285;45.122;20.726;2024-01-06T17:11:31;25.10;;;14.65;;
60430;SDS011;46285;45.122;20.726;2024-01-06T17:21:33;27.25;;;12.52;;
60430;SDS011;46285;45.122;20.726;2024-01-06T17:31:37;25.58;;;14.43;;
60430;SDS011;46285;45.122;20.726;2024-01-06T17:41:38;30.17;;;14.93;;
60430;SDS011;46285;45.122;20.726;2024-01-06T17:51:40;32.25;;;17.90;;
60430;SDS011;46285;45.122;20.726;2024-01-06T18:01:43;60.13;;;28.60;;
60430;SDS011;46285;45.122;20.726;2024-01-06T18:11:45;18.27;;;10.80;;
60430;SDS011;46285;45.122;20.726;2024-01-06T18:21:48;18.60;;;10.85;;
60430;SDS011;46285;45.122;20.726;2024-01-06T18:31:53;14.52;;;8.70;;
60430;SDS011;46285;45.122;20.726;2024-01-06T18:41:54;17.90;;;8.85;;
60430;SDS011;46285;45.122;20.726;2024-01-06T18:51:57;18.10;;;8.30;;
60430;SDS011;46285;45.122;20.726;2024-01-06T19:01:59;18.88;;;9.88;;
60430;SDS011;46285;45.122;20.726;2024-01-06T19:12:02;17.00;;;8.48;;
60430;SDS011;46285;45.122;20.726;2024-01-06T19:22:06;17.40;;;9.77;;
60430;SDS011;46285;45.122;20.726;2024-01-06T19:32:09;25.75;;;11.65;;
60430;SDS011;46285;45.122;20.726;2024-01-06T19:42:13;23.85;;;13.13;;
60430;SDS011;46285;45.122;20.726;2024-01-06T19:52:17;31.75;;;18.05;;
60430;SDS011;46285;45.122;20.726;2024-01-06T20:02:21;26.60;;;15.95;;
60430;SDS011;46285;45.122;20.726;2024-01-06T20:12:24;24.73;;;14.38;;
60430;SDS011;46285;45.122;20.726;2024-01-06T20:22:27;19.45;;;11.23;;
60430;SDS011;46285;45.122;20.726;2024-01-06T20:32:32;29.55;;;16.85;;
60430;SDS011;46285;45.122;20.726;2024-01-06T20:42:36;16.35;;;9.25;;
60430;SDS011;46285;45.122;20.726;2024-01-06T20:52:40;14.57;;;7.40;;
60430;SDS011;46285;45.122;20.726;2024-01-06T21:02:43;14.70;;;8.32;;
60430;SDS011;46285;45.122;20.726;2024-01-06T21:12:47;10.40;;;5.28;;
60430;SDS011;46285;45.122;20.726;2024-01-06T21:22:55;8.32;;;3.88;;
60430;SDS011;46285;45.122;20.726;2024-01-06T21:32:59;9.95;;;4.40;;
60430;SDS011;46285;45.122;20.726;2024-01-06T21:43:02;14.50;;;6.18;;
60430;SDS011;46285;45.122;20.726;2024-01-06T21:53:07;8.73;;;4.07;;
60430;SDS011;46285;45.122;20.726;2024-01-06T22:03:10;10.10;;;5.53;;
60430;SDS011;46285;45.122;20.726;2024-01-06T22:13:12;10.63;;;4.13;;
60430;SDS011;46285;45.122;20.726;2024-01-06T22:23:15;11.27;;;4.68;;
60430;SDS011;46285;45.122;20.726;2024-01-06T22:33:17;11.35;;;4.68;;
60430;SDS011;46285;45.122;20.726;2024-01-06T22:43:19;9.35;;;4.13;;
60430;SDS011;46285;45.122;20.726;2024-01-06T22:53:21;12.77;;;6.13;;
60430;SDS011;46285;45.122;20.726;2024-01-06T23:03:24;7.70;;;3.35;;
60430;SDS011;46285;45.122;20.726;2024-01-06T23:13:27;7.85;;;3.88;;
60430;SDS011;46285;45.122;20.726;2024-01-06T23:23:29;11.00;;;4.15;;
60430;SDS011;46285;45.122;20.726;2024-01-06T23:33:32;8.85;;;4.10;;
60430;SDS011;46285;45.122;20.726;2024-01-06T23:43:34;25.45;;;12.45;;
60430;SDS011;46285;45.122;20.726;2024-01-06T23:53:36;44.75;;;20.17;;
